sensor_id;sensor_type;location;lat;lon;timestamp;pressure;altitude;pressure_sealevel;temperature;humidity
82858;BME280;72620;47.774;9.620;2023-11-18T00:00:02;97221.28;;;5.14;90.46
82858;BME280;72620;47.774;9.620;2023-11-18T00:02:38;97229.13;;;5.11;90.36
82858;BME280;72620;47.774;9.620;2023-11-18T00:05:06;97223.84;;;5.14;90.19
82858;BME280;72620;47.774;9.620;2023-11-18T00:07:34;97223.84;;;5.14;90.29
82858;BME280;72620;47.774;9.620;2023-11-18T00:10:02;97233.47;;;5.09;90.69
82858;BME280;72620;47.774;9.620;2023-11-18T00:12:31;97222.56;;;5.07;90.14
82858;BME280;72620;47.774;9.620;2023-11-18T00:14:58;97218.59;;;5.03;90.93
82858;BME280;72620;47.774;9.620;2023-11-18T00:17:26;97236.31;;;5.04;90.99
82858;BME280;72620;47.774;9.620;2023-11-18T00:19:53;97228.31;;;4.96;91.35
82858;BME280;72620;47.774;9.620;2023-11-18T00:22:20;97223.53;;;4.92;90.96
82858;BME280;72620;47.774;9.620;2023-11-18T00:24:48;97221.69;;;4.94;91.08
82858;BME280;72620;47.774;9.620;2023-11-18T00:27:15;97223.69;;;4.89;90.65
82858;BME280;72620;47.774;9.620;2023-11-18T00:29:42;97227.00;;;4.91;90.94
82858;BME280;72620;47.774;9.620;2023-11-18T00:32:11;97229.03;;;4.98;91.76
82858;BME280;72620;47.774;9.620;2023-11-18T00:34:38;97229.78;;;5.00;91.41
82858;BME280;72620;47.774;9.620;2023-11-18T00:37:05;97231.22;;;5.04;91.81
82858;BME280;72620;47.774;9.620;2023-11-18T00:39:33;97220.84;;;5.07;91.16
82858;BME280;72620;47.774;9.620;2023-11-18T00:42:01;97218.97;;;5.11;90.84
82858;BME280;72620;47.774;9.620;2023-11-18T00:44:28;97221.41;;;5.12;90.53
82858;BME280;72620;47.774;9.620;2023-11-18T00:46:55;97216.22;;;5.14;89.92
82858;BME280;72620;47.774;9.620;2023-11-18T00:49:24;97221.41;;;5.12;90.60
82858;BME280;72620;47.774;9.620;2023-11-18T00:51:52;97227.50;;;5.10;90.51
82858;BME280;72620;47.774;9.620;2023-11-18T00:54:19;97221.78;;;5.06;90.58
82858;BME280;72620;47.774;9.620;2023-11-18T00:56:47;97231.03;;;5.07;90.10
82858;BME280;72620;47.774;9.620;2023-11-18T00:59:14;97220.75;;;5.09;90.61
82858;BME280;72620;47.774;9.620;2023-11-18T01:01:41;97230.94;;;5.09;90.03
82858;BME280;72620;47.774;9.620;2023-11-18T01:04:08;97232.47;;;5.11;90.66
82858;BME280;72620;47.774;9.620;2023-11-18T01:06:36;97232.69;;;5.08;90.57
82858;BME280;72620;47.774;9.620;2023-11-18T01:09:03;97235.00;;;5.11;90.70
82858;BME280;72620;47.774;9.620;2023-11-18T01:11:30;97245.03;;;5.14;90.35
82858;BME280;72620;47.774;9.620;2023-11-18T01:13:57;97238.81;;;5.19;90.46
82858;BME280;72620;47.774;9.620;2023-11-18T01:16:25;97237.09;;;5.19;90.91
82858;BME280;72620;47.774;9.620;2023-11-18T01:18:52;97236.28;;;5.19;91.14
82858;BME280;72620;47.774;9.620;2023-11-18T01:21:19;97241.25;;;5.20;91.33
82858;BME280;72620;47.774;9.620;2023-11-18T01:23:47;97236.00;;;5.23;91.44
82858;BME280;72620;47.774;9.620;2023-11-18T01:26:15;97232.44;;;5.26;91.27
82858;BME280;72620;47.774;9.620;2023-11-18T01:28:43;97229.91;;;5.26;90.35
82858;BME280;72620;47.774;9.620;2023-11-18T01:31:12;97235.00;;;5.26;90.76
82858;BME280;72620;47.774;9.620;2023-11-18T01:33:40;97235.00;;;5.26;90.26
82858;BME280;72620;47.774;9.620;2023-11-18T01:36:08;97242.19;;;5.19;91.68
82858;BME280;72620;47.774;9.620;2023-11-18T01:38:36;97240.53;;;5.18;92.22
82858;BME280;72620;47.774;9.620;2023-11-18T01:41:05;97238.72;;;5.20;90.88
82858;BME280;72620;47.774;9.620;2023-11-18T01:43:33;97234.84;;;5.14;90.93
82858;BME280;72620;47.774;9.620;2023-11-18T01:46:08;97245.13;;;5.13;91.94
82858;BME280;72620;47.774;9.620;2023-11-18T01:48:38;97248.38;;;5.15;91.76
82858;BME280;72620;47.774;9.620;2023-11-18T01:51:07;97256.53;;;5.20;91.88
82858;BME280;72620;47.774;9.620;2023-11-18T01:53:38;97259.72;;;5.24;91.55
82858;BME280;72620;47.774;9.620;2023-11-18T01:56:08;97261.28;;;5.26;90.64
82858;BME280;72620;47.774;9.620;2023-11-18T01:58:35;97253.72;;;5.25;90.84
82858;BME280;72620;47.774;9.620;2023-11-18T02:01:04;97263.88;;;5.25;90.75
82858;BME280;72620;47.774;9.620;2023-11-18T02:03:35;97261.34;;;5.25;90.79
82858;BME280;72620;47.774;9.620;2023-11-18T02:06:04;97258.91;;;5.23;90.69
82858;BME280;72620;47.774;9.620;2023-11-18T02:08:33;97262.38;;;5.22;90.71
82858;BME280;72620;47.774;9.620;2023-11-18T02:11:30;97278.38;;;5.24;90.31
82858;BME280;72620;47.774;9.620;2023-11-18T02:14:02;97268.25;;;5.23;90.87
82858;BME280;72620;47.774;9.620;2023-11-18T02:16:32;97261.56;;;5.22;91.37
82858;BME280;72620;47.774;9.620;2023-11-18T02:19:03;97253.38;;;5.17;92.02
82858;BME280;72620;47.774;9.620;2023-11-18T02:21:37;97250.72;;;5.18;91.32
82858;BME280;72620;47.774;9.620;2023-11-18T02:24:05;97258.84;;;5.10;91.59
82858;BME280;72620;47.774;9.620;2023-11-18T02:26:33;97250.56;;;5.07;90.93
82858;BME280;72620;47.774;9.620;2023-11-18T02:29:00;97249.84;;;5.05;90.69
82858;BME280;72620;47.774;9.620;2023-11-18T02:31:34;97249.84;;;5.05;90.69
82858;BME280;72620;47.774;9.620;2023-11-18T02:34:12;97253.94;;;5.07;91.40
82858;BME280;72620;47.774;9.620;2023-11-18T02:36:48;97249.38;;;5.12;91.08
82858;BME280;72620;47.774;9.620;2023-11-18T02:39:42;97247.66;;;5.13;91.31
82858;BME280;72620;47.774;9.620;2023-11-18T02:42:13;97256.31;;;5.10;90.99
82858;BME280;72620;47.774;9.620;2023-11-18T02:44:43;97250.28;;;5.11;91.00
82858;BME280;72620;47.774;9.620;2023-11-18T02:47:11;97250.81;;;5.17;91.15
82858;BME280;72620;47.774;9.620;2023-11-18T02:49:39;97243.19;;;5.17;90.75
82858;BME280;72620;47.774;9.620;2023-11-18T02:52:06;97240.81;;;5.13;90.90
82858;BME280;72620;47.774;9.620;2023-11-18T02:54:36;97247.75;;;5.11;91.25
82858;BME280;72620;47.774;9.620;2023-11-18T02:57:04;97248.66;;;5.10;91.09
82858;BME280;72620;47.774;9.620;2023-11-18T02:59:31;97250.28;;;5.11;90.43
82858;BME280;72620;47.774;9.620;2023-11-18T03:01:58;97252.03;;;5.11;90.98
82858;BME280;72620;47.774;9.620;2023-11-18T03:04:28;97246.13;;;5.10;90.65
82858;BME280;72620;47.774;9.620;2023-11-18T03:06:55;97249.50;;;5.11;91.01
82858;BME280;72620;47.774;9.620;2023-11-18T03:09:22;97245.41;;;5.08;91.58
82858;BME280;72620;47.774;9.620;2023-11-18T03:11:54;97246.13;;;5.10;91.11
82858;BME280;72620;47.774;9.620;2023-11-18T03:14:21;97247.94;;;5.08;90.67
82858;BME280;72620;47.774;9.620;2023-11-18T03:16:48;97247.41;;;5.03;91.61
82858;BME280;72620;47.774;9.620;2023-11-18T03:19:15;97250.22;;;4.99;91.42
82858;BME280;72620;47.774;9.620;2023-11-18T03:21:43;97241.94;;;4.95;91.21
82858;BME280;72620;47.774;9.620;2023-11-18T03:24:10;97238.16;;;4.88;92.10
82858;BME280;72620;47.774;9.620;2023-11-18T03:26:37;97232.25;;;4.88;92.26
82858;BME280;72620;47.774;9.620;2023-11-18T03:29:04;97239.72;;;4.91;91.73
82858;BME280;72620;47.774;9.620;2023-11-18T03:31:31;97243.75;;;4.93;91.87
82858;BME280;72620;47.774;9.620;2023-11-18T03:33:59;97240.50;;;4.91;92.05
82858;BME280;72620;47.774;9.620;2023-11-18T03:36:26;97238.50;;;4.82;91.74
82858;BME280;72620;47.774;9.620;2023-11-18T03:38:53;97241.06;;;4.82;91.46
82858;BME280;72620;47.774;9.620;2023-11-18T03:41:20;97236.88;;;4.81;91.53
82858;BME280;72620;47.774;9.620;2023-11-18T03:43:50;97245.69;;;4.76;91.78
82858;BME280;72620;47.774;9.620;2023-11-18T03:46:17;97246.69;;;4.73;91.78
82858;BME280;72620;47.774;9.620;2023-11-18T03:48:44;97249.16;;;4.75;90.84
82858;BME280;72620;47.774;9.620;2023-11-18T03:51:12;97248.34;;;4.74;90.74
82858;BME280;72620;47.774;9.620;2023-11-18T03:53:39;97238.34;;;4.71;90.81
82858;BME280;72620;47.774;9.620;2023-11-18T03:56:06;97242.78;;;4.68;90.88
82858;BME280;72620;47.774;9.620;2023-11-18T03:58:34;97239.81;;;4.61;90.58
82858;BME280;72620;47.774;9.620;2023-11-18T04:01:01;97237.59;;;4.55;91.33
82858;BME280;72620;47.774;9.620;2023-11-18T04:03:29;97241.25;;;4.51;91.54
82858;BME280;72620;47.774;9.620;2023-11-18T04:05:56;97244.78;;;4.49;92.04
82858;BME280;72620;47.774;9.620;2023-11-18T04:08:23;97249.84;;;4.49;91.96
82858;BME280;72620;47.774;9.620;2023-11-18T04:10:50;97253.94;;;4.51;91.71
82858;BME280;72620;47.774;9.620;2023-11-18T04:13:17;97257.94;;;4.55;91.52
82858;BME280;72620;47.774;9.620;2023-11-18T04:15:44;97256.88;;;4.59;91.93
82858;BME280;72620;47.774;9.620;2023-11-18T04:18:12;97259.22;;;4.62;91.90
82858;BME280;72620;47.774;9.620;2023-11-18T04:20:39;97257.66;;;4.60;91.29
82858;BME280;72620;47.774;9.620;2023-11-18T04:23:06;97263.78;;;4.57;91.94
82858;BME280;72620;47.774;9.620;2023-11-18T04:25:33;97258.75;;;4.56;91.87
82858;BME280;72620;47.774;9.620;2023-11-18T04:28:00;97254.66;;;4.53;92.15
82858;BME280;72620;47.774;9.620;2023-11-18T04:30:27;97259.22;;;4.48;91.83
82858;BME280;72620;47.774;9.620;2023-11-18T04:32:55;97257.69;;;4.46;91.81
82858;BME280;72620;47.774;9.620;2023-11-18T04:35:23;97256.22;;;4.42;91.90
82858;BME280;72620;47.774;9.620;2023-11-18T04:37:51;97250.31;;;4.41;92.31
82858;BME280;72620;47.774;9.620;2023-11-18T04:40:18;97253.69;;;4.42;92.53
82858;BME280;72620;47.774;9.620;2023-11-18T04:42:45;97263.75;;;4.43;92.28
82858;BME280;72620;47.774;9.620;2023-11-18T04:45:12;97265.38;;;4.44;91.36
82858;BME280;72620;47.774;9.620;2023-11-18T04:47:41;97263.56;;;4.46;91.17
82858;BME280;72620;47.774;9.620;2023-11-18T04:50:10;97259.41;;;4.45;91.33
82858;BME280;72620;47.774;9.620;2023-11-18T04:52:37;97260.50;;;4.41;90.83
82858;BME280;72620;47.774;9.620;2023-11-18T04:55:05;97264.44;;;4.31;91.06
82858;BME280;72620;47.774;9.620;2023-11-18T04:57:33;97261.66;;;4.21;91.46
82858;BME280;72620;47.774;9.620;2023-11-18T05:00:02;97272.22;;;4.14;91.33
82858;BME280;72620;47.774;9.620;2023-11-18T05:02:38;97266.94;;;4.03;91.87
82858;BME280;72620;47.774;9.620;2023-11-18T05:05:06;97268.09;;;3.97;91.65
82858;BME280;72620;47.774;9.620;2023-11-18T05:07:34;97258.91;;;3.95;91.11
82858;BME280;72620;47.774;9.620;2023-11-18T05:10:02;97262.53;;;3.91;91.90
82858;BME280;72620;47.774;9.620;2023-11-18T05:12:34;97266.88;;;3.89;91.18
82858;BME280;72620;47.774;9.620;2023-11-18T05:15:02;97259.44;;;3.86;91.51
82858;BME280;72620;47.774;9.620;2023-11-18T05:17:31;97255.91;;;3.88;91.28
82858;BME280;72620;47.774;9.620;2023-11-18T05:19:59;97255.75;;;3.91;91.83
82858;BME280;72620;47.774;9.620;2023-11-18T05:22:27;97249.78;;;3.92;91.72
82858;BME280;72620;47.774;9.620;2023-11-18T05:24:54;97247.31;;;3.91;91.68
82858;BME280;72620;47.774;9.620;2023-11-18T05:27:21;97255.75;;;3.91;91.68
82858;BME280;72620;47.774;9.620;2023-11-18T05:29:48;97258.13;;;3.94;92.00
82858;BME280;72620;47.774;9.620;2023-11-18T05:32:21;97247.88;;;3.96;92.54
82858;BME280;72620;47.774;9.620;2023-11-18T05:34:50;97247.88;;;3.96;92.54
82858;BME280;72620;47.774;9.620;2023-11-18T05:37:21;97247.63;;;4.00;91.45
82858;BME280;72620;47.774;9.620;2023-11-18T05:40:05;97244.97;;;4.02;91.67
82858;BME280;72620;47.774;9.620;2023-11-18T05:42:56;97237.63;;;3.97;91.32
82858;BME280;72620;47.774;9.620;2023-11-18T05:46:19;97248.97;;;4.06;91.52
82858;BME280;72620;47.774;9.620;2023-11-18T05:49:15;97242.44;;;4.02;91.66
82858;BME280;72620;47.774;9.620;2023-11-18T05:52:06;97248.91;;;4.07;91.71
82858;BME280;72620;47.774;9.620;2023-11-18T05:54:33;97245.44;;;4.08;92.00
82858;BME280;72620;47.774;9.620;2023-11-18T05:57:00;97242.91;;;4.08;91.82
82858;BME280;72620;47.774;9.620;2023-11-18T05:59:28;97245.44;;;4.08;92.04
82858;BME280;72620;47.774;9.620;2023-11-18T06:01:55;97242.75;;;4.11;92.29
82858;BME280;72620;47.774;9.620;2023-11-18T06:04:23;97253.53;;;4.15;92.45
82858;BME280;72620;47.774;9.620;2023-11-18T06:06:50;97258.44;;;4.18;92.46
82858;BME280;72620;47.774;9.620;2023-11-18T06:09:18;97249.00;;;4.20;92.33
82858;BME280;72620;47.774;9.620;2023-11-18T06:11:47;97252.13;;;4.25;93.05
82858;BME280;72620;47.774;9.620;2023-11-18T06:14:16;97254.13;;;4.34;91.86
82858;BME280;72620;47.774;9.620;2023-11-18T06:16:44;97238.72;;;4.37;91.98
82858;BME280;72620;47.774;9.620;2023-11-18T06:19:11;97243.69;;;4.38;92.51
82858;BME280;72620;47.774;9.620;2023-11-18T06:21:38;97238.44;;;4.42;91.84
82858;BME280;72620;47.774;9.620;2023-11-18T06:24:06;97246.59;;;4.47;91.72
82858;BME280;72620;47.774;9.620;2023-11-18T06:26:34;97249.84;;;4.49;91.46
82858;BME280;72620;47.774;9.620;2023-11-18T06:29:06;97248.88;;;4.51;91.54
82858;BME280;72620;47.774;9.620;2023-11-18T06:31:33;97239.63;;;4.50;90.90
82858;BME280;72620;47.774;9.620;2023-11-18T06:34:00;97237.97;;;4.49;91.13
82858;BME280;72620;47.774;9.620;2023-11-18T06:36:29;97242.97;;;4.51;91.78
82858;BME280;72620;47.774;9.620;2023-11-18T06:38:57;97234.44;;;4.52;91.50
82858;BME280;72620;47.774;9.620;2023-11-18T06:41:26;97250.25;;;4.57;91.40
82858;BME280;72620;47.774;9.620;2023-11-18T06:44:00;97242.34;;;4.61;90.82
82858;BME280;72620;47.774;9.620;2023-11-18T06:46:36;97252.97;;;4.68;90.69
82858;BME280;72620;47.774;9.620;2023-11-18T06:49:07;97246.78;;;4.72;91.28
82858;BME280;72620;47.774;9.620;2023-11-18T06:51:37;97251.03;;;4.71;91.62
82858;BME280;72620;47.774;9.620;2023-11-18T06:54:06;97251.59;;;4.76;91.53
82858;BME280;72620;47.774;9.620;2023-11-18T06:56:41;97268.22;;;4.82;91.29
82858;BME280;72620;47.774;9.620;2023-11-18T06:59:12;97264.66;;;4.84;90.70
82858;BME280;72620;47.774;9.620;2023-11-18T07:01:42;97270.56;;;4.85;91.37
82858;BME280;72620;47.774;9.620;2023-11-18T07:04:12;97282.47;;;4.84;91.49
82858;BME280;72620;47.774;9.620;2023-11-18T07:06:42;97284.75;;;4.89;90.65
82858;BME280;72620;47.774;9.620;2023-11-18T07:09:10;97285.66;;;4.88;90.38
82858;BME280;72620;47.774;9.620;2023-11-18T07:11:45;97282.94;;;4.91;89.72
82858;BME280;72620;47.774;9.620;2023-11-18T07:14:14;97286.66;;;4.99;89.97
82858;BME280;72620;47.774;9.620;2023-11-18T07:16:43;97281.19;;;5.05;90.47
82858;BME280;72620;47.774;9.620;2023-11-18T07:19:11;97274.13;;;5.10;89.78
82858;BME280;72620;47.774;9.620;2023-11-18T07:21:48;97268.25;;;5.23;88.71
82858;BME280;72620;47.774;9.620;2023-11-18T07:24:17;97258.06;;;5.37;89.90
82858;BME280;72620;47.774;9.620;2023-11-18T07:26:45;97261.81;;;5.58;87.00
82858;BME280;72620;47.774;9.620;2023-11-18T07:29:12;97256.59;;;5.73;85.73
82858;BME280;72620;47.774;9.620;2023-11-18T07:31:39;97253.91;;;5.89;84.81
82858;BME280;72620;47.774;9.620;2023-11-18T07:34:06;97254.75;;;6.02;85.35
82858;BME280;72620;47.774;9.620;2023-11-18T07:36:34;97256.00;;;6.09;84.26
82858;BME280;72620;47.774;9.620;2023-11-18T07:39:01;97267.72;;;6.12;83.72
82858;BME280;72620;47.774;9.620;2023-11-18T07:41:33;97260.69;;;6.15;83.54
82858;BME280;72620;47.774;9.620;2023-11-18T07:44:00;97257.66;;;6.23;83.80
82858;BME280;72620;47.774;9.620;2023-11-18T07:46:28;97271.72;;;6.28;83.76
82858;BME280;72620;47.774;9.620;2023-11-18T07:48:58;97265.91;;;6.26;81.94
82858;BME280;72620;47.774;9.620;2023-11-18T07:51:26;97268.75;;;6.22;82.70
82858;BME280;72620;47.774;9.620;2023-11-18T07:53:53;97275.19;;;6.27;83.81
82858;BME280;72620;47.774;9.620;2023-11-18T07:56:20;97269.88;;;6.30;83.41
82858;BME280;72620;47.774;9.620;2023-11-18T07:58:50;97266.59;;;6.28;82.73
82858;BME280;72620;47.774;9.620;2023-11-18T08:01:19;97264.28;;;6.25;82.60
82858;BME280;72620;47.774;9.620;2023-11-18T08:03:48;97268.25;;;6.29;83.52
82858;BME280;72620;47.774;9.620;2023-11-18T08:06:18;97269.88;;;6.30;83.03
82858;BME280;72620;47.774;9.620;2023-11-18T08:08:45;97269.09;;;6.30;82.31
82858;BME280;72620;47.774;9.620;2023-11-18T08:11:14;97269.78;;;6.32;82.03
82858;BME280;72620;47.774;9.620;2023-11-18T08:13:42;97267.66;;;6.38;83.01
82858;BME280;72620;47.774;9.620;2023-11-18T08:16:10;97254.59;;;6.43;81.74
82858;BME280;72620;47.774;9.620;2023-11-18T08:18:39;97258.88;;;6.42;81.36
82858;BME280;72620;47.774;9.620;2023-11-18T08:21:07;97243.69;;;6.41;80.39
82858;BME280;72620;47.774;9.620;2023-11-18T08:23:34;97251.84;;;6.33;80.66
82858;BME280;72620;47.774;9.620;2023-11-18T08:26:02;97244.91;;;6.35;82.63
82858;BME280;72620;47.774;9.620;2023-11-18T08:28:32;97245.00;;;6.46;81.57
82858;BME280;72620;47.774;9.620;2023-11-18T08:30:59;97253.56;;;6.58;81.08
82858;BME280;72620;47.774;9.620;2023-11-18T08:33:27;97243.47;;;6.69;81.25
82858;BME280;72620;47.774;9.620;2023-11-18T08:35:55;97252.34;;;6.76;80.96
82858;BME280;72620;47.774;9.620;2023-11-18T08:38:23;97260.41;;;6.83;81.76
82858;BME280;72620;47.774;9.620;2023-11-18T08:40:51;97260.91;;;6.88;82.18
82858;BME280;72620;47.774;9.620;2023-11-18T08:43:18;97251.94;;;6.95;79.42
82858;BME280;72620;47.774;9.620;2023-11-18T08:45:48;97255.78;;;7.00;79.98
82858;BME280;72620;47.774;9.620;2023-11-18T08:48:17;97259.34;;;7.10;79.94
82858;BME280;72620;47.774;9.620;2023-11-18T08:50:45;97260.97;;;7.11;77.97
82858;BME280;72620;47.774;9.620;2023-11-18T08:53:14;97251.47;;;7.13;78.22
82858;BME280;72620;47.774;9.620;2023-11-18T08:55:45;97253.69;;;7.18;78.72
82858;BME280;72620;47.774;9.620;2023-11-18T08:58:21;97245.84;;;7.21;80.16
82858;BME280;72620;47.774;9.620;2023-11-18T09:00:51;97253.44;;;7.33;79.17
82858;BME280;72620;47.774;9.620;2023-11-18T09:03:21;97255.47;;;7.41;78.53
82858;BME280;72620;47.774;9.620;2023-11-18T09:05:54;97248.31;;;7.46;78.40
82858;BME280;72620;47.774;9.620;2023-11-18T09:08:32;97255.53;;;7.52;79.73
82858;BME280;72620;47.774;9.620;2023-11-18T09:11:05;97257.66;;;7.58;78.07
82858;BME280;72620;47.774;9.620;2023-11-18T09:13:34;97249.78;;;7.61;74.90
82858;BME280;72620;47.774;9.620;2023-11-18T09:16:04;97255.81;;;7.60;75.11
82858;BME280;72620;47.774;9.620;2023-11-18T09:18:38;97257.22;;;7.41;76.42
82858;BME280;72620;47.774;9.620;2023-11-18T09:21:09;97253.84;;;7.40;77.31
82858;BME280;72620;47.774;9.620;2023-11-18T09:23:43;97258.03;;;7.41;76.46
82858;BME280;72620;47.774;9.620;2023-11-18T09:26:11;97261.84;;;7.59;74.01
82858;BME280;72620;47.774;9.620;2023-11-18T09:28:39;97255.31;;;7.79;75.78
82858;BME280;72620;47.774;9.620;2023-11-18T09:31:07;97239.63;;;8.42;73.82
82858;BME280;72620;47.774;9.620;2023-11-18T09:33:40;97230.09;;;8.66;72.40
82858;BME280;72620;47.774;9.620;2023-11-18T09:36:20;97232.78;;;8.87;71.38
82858;BME280;72620;47.774;9.620;2023-11-18T09:38:49;97236.03;;;9.00;71.49
82858;BME280;72620;47.774;9.620;2023-11-18T09:41:16;97235.91;;;9.01;70.18
82858;BME280;72620;47.774;9.620;2023-11-18T09:43:45;97239.66;;;8.97;70.59
82858;BME280;72620;47.774;9.620;2023-11-18T09:46:17;97240.13;;;8.91;68.53
82858;BME280;72620;47.774;9.620;2023-11-18T09:48:53;97242.34;;;8.62;70.77
82858;BME280;72620;47.774;9.620;2023-11-18T09:51:36;97245.44;;;8.55;73.15
82858;BME280;72620;47.774;9.620;2023-11-18T09:57:32;97233.63;;;8.65;72.70
82858;BME280;72620;47.774;9.620;2023-11-18T10:00:07;97224.28;;;8.75;74.84
82858;BME280;72620;47.774;9.620;2023-11-18T10:02:49;97235.47;;;8.74;70.72
82858;BME280;72620;47.774;9.620;2023-11-18T10:05:20;97235.56;;;8.61;71.11
82858;BME280;72620;47.774;9.620;2023-11-18T10:07:49;97241.84;;;8.46;70.49
82858;BME280;72620;47.774;9.620;2023-11-18T10:10:16;97229.84;;;8.36;71.05
82858;BME280;72620;47.774;9.620;2023-11-18T10:12:46;97226.47;;;8.35;71.40
82858;BME280;72620;47.774;9.620;2023-11-18T10:15:21;97238.94;;;8.40;70.79
82858;BME280;72620;47.774;9.620;2023-11-18T10:17:52;97227.84;;;8.28;72.58
82858;BME280;72620;47.774;9.620;2023-11-18T10:20:45;97221.81;;;8.29;73.33
82858;BME280;72620;47.774;9.620;2023-11-18T10:23:15;97221.25;;;8.37;73.27
82858;BME280;72620;47.774;9.620;2023-11-18T10:25:49;97207.63;;;8.47;73.52
82858;BME280;72620;47.774;9.620;2023-11-18T10:28:33;97209.50;;;8.56;72.52
82858;BME280;72620;47.774;9.620;2023-11-18T10:31:06;97203.25;;;8.49;72.54
82858;BME280;72620;47.774;9.620;2023-11-18T10:33:38;97200.09;;;8.46;71.51
82858;BME280;72620;47.774;9.620;2023-11-18T10:36:29;97205.78;;;8.38;74.07
82858;BME280;72620;47.774;9.620;2023-11-18T10:39:04;97205.66;;;8.40;71.83
82858;BME280;72620;47.774;9.620;2023-11-18T10:41:43;97206.84;;;8.36;70.70
82858;BME280;72620;47.774;9.620;2023-11-18T10:44:10;97202.41;;;8.38;69.51
82858;BME280;72620;47.774;9.620;2023-11-18T10:46:51;97205.31;;;8.44;72.51
82858;BME280;72620;47.774;9.620;2023-11-18T10:49:29;97197.66;;;8.55;68.96
82858;BME280;72620;47.774;9.620;2023-11-18T10:52:07;97194.06;;;8.58;71.08
82858;BME280;72620;47.774;9.620;2023-11-18T10:54:36;97201.72;;;8.69;71.67
82858;BME280;72620;47.774;9.620;2023-11-18T10:57:05;97203.25;;;8.83;68.50
82858;BME280;72620;47.774;9.620;2023-11-18T10:59:34;97196.75;;;8.79;70.76
82858;BME280;72620;47.774;9.620;2023-11-18T11:02:18;97195.44;;;8.84;70.95
82858;BME280;72620;47.774;9.620;2023-11-18T11:04:48;97193.81;;;8.83;71.18
82858;BME280;72620;47.774;9.620;2023-11-18T11:07:17;97193.47;;;8.76;70.20
82858;BME280;72620;47.774;9.620;2023-11-18T11:09:46;97201.50;;;8.83;69.80
82858;BME280;72620;47.774;9.620;2023-11-18T11:12:16;97204.78;;;8.74;69.18
82858;BME280;72620;47.774;9.620;2023-11-18T11:14:57;97210.59;;;8.65;73.54
82858;BME280;72620;47.774;9.620;2023-11-18T11:17:31;97220.47;;;8.69;71.24
82858;BME280;72620;47.774;9.620;2023-11-18T11:20:08;97230.44;;;8.61;69.59
82858;BME280;72620;47.774;9.620;2023-11-18T11:23:01;97230.09;;;8.55;70.36
82858;BME280;72620;47.774;9.620;2023-11-18T11:25:45;97224.41;;;8.51;69.51
82858;BME280;72620;47.774;9.620;2023-11-18T11:28:37;97221.84;;;8.51;69.00
82858;BME280;72620;47.774;9.620;2023-11-18T11:31:43;97218.19;;;8.32;72.41
82858;BME280;72620;47.774;9.620;2023-11-18T11:34:20;97216.59;;;8.31;73.24
82858;BME280;72620;47.774;9.620;2023-11-18T11:36:54;97210.44;;;8.33;70.93
82858;BME280;72620;47.774;9.620;2023-11-18T11:39:23;97219.63;;;8.36;72.91
82858;BME280;72620;47.774;9.620;2023-11-18T11:41:56;97215.56;;;8.44;70.08
82858;BME280;72620;47.774;9.620;2023-11-18T11:44:27;97210.69;;;8.52;72.59
82858;BME280;72620;47.774;9.620;2023-11-18T11:46:59;97205.00;;;8.60;70.66
82858;BME280;72620;47.774;9.620;2023-11-18T11:49:39;97196.97;;;8.64;70.03
82858;BME280;72620;47.774;9.620;2023-11-18T11:52:21;97198.69;;;8.75;72.61
82858;BME280;72620;47.774;9.620;2023-11-18T11:55:05;97192.19;;;8.82;70.50
82858;BME280;72620;47.774;9.620;2023-11-18T11:58:00;97187.63;;;8.86;67.90
82858;BME280;72620;47.774;9.620;2023-11-18T12:00:27;97179.28;;;8.61;68.94
82858;BME280;72620;47.774;9.620;2023-11-18T12:03:02;97180.66;;;8.43;71.24
82858;BME280;72620;47.774;9.620;2023-11-18T12:05:31;97168.91;;;8.41;69.58
82858;BME280;72620;47.774;9.620;2023-11-18T12:08:00;97161.16;;;8.42;69.69
82858;BME280;72620;47.774;9.620;2023-11-18T12:10:31;97159.63;;;8.40;71.48
82858;BME280;72620;47.774;9.620;2023-11-18T12:13:11;97168.69;;;8.44;69.99
82858;BME280;72620;47.774;9.620;2023-11-18T12:15:51;97167.44;;;8.49;70.62
82858;BME280;72620;47.774;9.620;2023-11-18T12:18:32;97155.56;;;8.59;71.10
82858;BME280;72620;47.774;9.620;2023-11-18T12:21:00;97151.38;;;8.69;70.38
82858;BME280;72620;47.774;9.620;2023-11-18T12:23:31;97156.34;;;8.82;71.06
82858;BME280;72620;47.774;9.620;2023-11-18T12:26:01;97167.03;;;8.98;67.84
82858;BME280;72620;47.774;9.620;2023-11-18T12:28:31;97159.47;;;8.97;68.28
82858;BME280;72620;47.774;9.620;2023-11-18T12:31:03;97148.97;;;9.00;67.79
82858;BME280;72620;47.774;9.620;2023-11-18T12:42:08;97131.22;;;9.30;64.09
82858;BME280;72620;47.774;9.620;2023-11-18T12:45:07;97127.06;;;9.18;
82858;BME280;72620;47.774;9.620;2023-11-18T12:47:48;97121.81;;;9.19;66.81
82858;BME280;72620;47.774;9.620;2023-11-18T12:50:23;97123.25;;;9.12;69.27
82858;BME280;72620;47.774;9.620;2023-11-18T12:52:52;97115.34;;;9.04;69.08
82858;BME280;72620;47.774;9.620;2023-11-18T12:55:22;97127.94;;;8.96;69.83
82858;BME280;72620;47.774;9.620;2023-11-18T12:57:50;97114.69;;;8.91;69.17
82858;BME280;72620;47.774;9.620;2023-11-18T13:00:20;97114.69;;;8.80;67.92
82858;BME280;72620;47.774;9.620;2023-11-18T13:02:55;97101.81;;;8.70;68.07
82858;BME280;72620;47.774;9.620;2023-11-18T13:05:26;97098.78;;;8.54;68.71
82858;BME280;72620;47.774;9.620;2023-11-18T13:07:58;97100.31;;;8.46;71.17
82858;BME280;72620;47.774;9.620;2023-11-18T13:10:28;97104.75;;;8.44;70.96
82858;BME280;72620;47.774;9.620;2023-11-18T13:12:55;97096.94;;;8.34;72.48
82858;BME280;72620;47.774;9.620;2023-11-18T13:15:25;97101.97;;;8.36;72.20
82858;BME280;72620;47.774;9.620;2023-11-18T13:18:02;97090.22;;;8.33;72.29
82858;BME280;72620;47.774;9.620;2023-11-18T13:20:34;97093.00;;;8.30;72.28
82858;BME280;72620;47.774;9.620;2023-11-18T13:23:03;97091.81;;;8.23;71.32
82858;BME280;72620;47.774;9.620;2023-11-18T13:25:36;97090.06;;;8.13;71.33
82858;BME280;72620;47.774;9.620;2023-11-18T13:28:08;97098.44;;;8.03;72.10
82858;BME280;72620;47.774;9.620;2023-11-18T13:30:37;97083.78;;;7.94;72.78
82858;BME280;72620;47.774;9.620;2023-11-18T13:33:06;97093.31;;;7.92;72.54
82858;BME280;72620;47.774;9.620;2023-11-18T13:35:36;97093.44;;;7.91;75.44
82858;BME280;72620;47.774;9.620;2023-11-18T13:38:03;97075.75;;;7.88;74.86
82858;BME280;72620;47.774;9.620;2023-11-18T13:40:47;97071.56;;;7.87;75.51